createdAt,value
2023-03-29T00:03:18.701Z,101666.03
2023-03-29T00:08:22.749Z,101665.75
2023-03-29T00:13:25.377Z,101658.56
2023-03-29T00:18:27.928Z,101659.81
2023-03-29T00:23:32.283Z,101649.13
2023-03-29T00:28:34.995Z,101639.59
2023-03-29T00:33:37.581Z,101630.00
2023-03-29T00:38:41.576Z,101633.09
2023-03-29T00:43:55.375Z,101630.19
2023-03-29T00:49:02.320Z,101619.19
2023-03-29T00:54:09.243Z,101604.84
2023-03-29T00:59:16.141Z,101608.84
2023-03-29T01:04:24.639Z,101589.31
2023-03-29T01:09:32.308Z,101588.09
2023-03-29T01:14:39.345Z,101576.00
2023-03-29T01:19:47.000Z,101567.84
2023-03-29T01:25:00.979Z,101561.38
2023-03-29T01:30:12.609Z,101554.50
2023-03-29T01:35:21.021Z,101540.53
2023-03-29T01:40:24.035Z,101532.44
2023-03-29T01:45:35.613Z,101533.50
2023-03-29T01:50:43.104Z,101514.78
2023-03-29T01:55:51.222Z,101508.94
2023-03-29T02:00:56.107Z,101511.94
2023-03-29T02:06:00.262Z,101498.44
2023-03-29T02:11:03.006Z,101491.69
2023-03-29T02:16:12.465Z,101487.38
2023-03-29T02:21:21.806Z,101478.53
2023-03-29T02:26:24.621Z,101480.47
2023-03-29T02:31:33.184Z,101484.78
2023-03-29T02:36:41.635Z,101473.47
2023-03-29T02:41:47.346Z,101466.56
2023-03-29T02:46:57.328Z,101467.47
2023-03-29T02:52:07.322Z,101465.50
2023-03-29T02:57:11.191Z,101474.38
2023-03-29T03:02:17.433Z,101465.34
2023-03-29T03:07:20.264Z,101462.91
2023-03-29T03:12:22.832Z,101448.72
2023-03-29T03:17:26.752Z,101438.72
2023-03-29T03:22:29.252Z,101439.78
2023-03-29T03:27:33.904Z,101437.94
2023-03-29T03:32:37.869Z,101435.34
2023-03-29T03:37:40.972Z,101422.31
2023-03-29T03:42:43.941Z,101422.31
2023-03-29T03:47:47.978Z,101417.75
2023-03-29T03:52:50.628Z,101406.41
2023-03-29T03:57:53.259Z,101407.06
2023-03-29T04:02:57.270Z,101406.78
2023-03-29T04:08:00.109Z,101398.84
2023-03-29T04:13:03.045Z,101388.16
2023-03-29T04:18:07.406Z,101386.19
2023-03-29T04:23:10.208Z,101393.50
2023-03-29T04:28:13.590Z,101384.00
2023-03-29T04:33:17.501Z,101384.78
2023-03-29T04:38:23.116Z,101383.59
2023-03-29T04:43:25.737Z,101377.34
2023-03-29T04:48:31.534Z,101377.34
2023-03-29T04:53:34.109Z,101362.22
2023-03-29T04:58:36.719Z,101370.81
2023-03-29T05:03:40.565Z,101364.56
2023-03-29T05:08:43.303Z,101355.69
2023-03-29T05:13:45.965Z,101353.84
2023-03-29T05:18:49.940Z,101355.81
2023-03-29T05:23:53.237Z,101349.84
2023-03-29T05:28:55.834Z,101352.31
2023-03-29T05:33:59.662Z,101342.81
2023-03-29T05:39:02.162Z,101335.81
2023-03-29T05:44:04.749Z,101329.94
2023-03-29T05:49:08.605Z,101334.50
2023-03-29T05:54:11.510Z,101327.06
2023-03-29T05:59:14.842Z,101326.56
2023-03-29T06:04:18.915Z,101329.56
2023-03-29T06:09:21.519Z,101329.06
2023-03-29T06:14:24.857Z,101326.72
2023-03-29T06:19:29.197Z,101319.34
2023-03-29T06:24:32.210Z,101318.91
2023-03-29T06:29:35.105Z,101315.41
2023-03-29T06:34:39.486Z,101310.19
2023-03-29T06:39:42.018Z,101307.75
2023-03-29T06:44:44.590Z,101304.47
2023-03-29T06:49:48.403Z,101304.50
2023-03-29T06:54:51.667Z,101299.41
2023-03-29T06:59:54.214Z,101300.16
2023-03-29T07:04:58.040Z,101301.72
2023-03-29T07:10:01.729Z,101312.22
2023-03-29T07:15:04.733Z,101318.75
2023-03-29T07:20:13.833Z,101321.84
2023-03-29T07:25:17.150Z,101326.66
2023-03-29T07:30:22.747Z,101327.69
2023-03-29T07:35:27.498Z,101323.00
2023-03-29T07:40:31.150Z,101321.34
2023-03-29T07:45:33.910Z,101312.16
2023-03-29T07:50:37.864Z,101321.22
2023-03-29T07:55:47.231Z,101312.91
2023-03-29T08:00:50.639Z,101315.56
2023-03-29T08:05:54.841Z,101316.59
2023-03-29T08:10:57.423Z,101310.25
2023-03-29T08:16:00.199Z,101298.84
2023-03-29T08:21:04.760Z,101302.88
2023-03-29T08:26:08.592Z,101298.91
2023-03-29T08:31:12.741Z,101281.19
2023-03-29T08:36:16.705Z,101289.50
2023-03-29T08:41:32.866Z,101278.50
2023-03-29T08:46:42.157Z,101282.66
2023-03-29T08:51:49.056Z,101267.56
2023-03-29T08:56:53.157Z,101270.59
2023-03-29T09:01:59.213Z,101263.09
2023-03-29T09:07:04.919Z,101259.50
2023-03-29T09:12:20.789Z,101265.84
2023-03-29T09:17:35.707Z,101256.53
2023-03-29T09:22:47.016Z,101248.50
2023-03-29T09:27:54.899Z,101248.41
2023-03-29T09:33:01.769Z,101240.25
2023-03-29T09:38:10.358Z,101234.09
2023-03-29T09:43:17.620Z,101223.34
2023-03-29T09:48:21.598Z,101224.97
2023-03-29T09:53:26.412Z,101221.41
2023-03-29T09:58:31.570Z,101199.53
2023-03-29T10:03:34.924Z,101197.66
2023-03-29T10:08:41.696Z,101202.28
2023-03-29T10:13:47.224Z,101205.00
2023-03-29T10:18:51.093Z,101206.59
2023-03-29T10:23:59.610Z,101198.78
2023-03-29T10:29:06.106Z,101195.59
2023-03-29T10:34:09.558Z,101191.69
2023-03-29T10:39:16.250Z,101191.53
2023-03-29T10:44:31.572Z,101187.28
2023-03-29T10:49:42.009Z,101184.50
2023-03-29T10:54:47.261Z,101184.00
2023-03-29T10:59:58.864Z,101186.19
2023-03-29T11:05:15.695Z,101181.09
2023-03-29T11:10:42.590Z,101179.81
2023-03-29T11:15:59.128Z,101172.75
2023-03-29T11:21:10.722Z,101168.69
2023-03-29T11:26:22.730Z,101170.03
2023-03-29T11:31:37.206Z,101177.44
2023-03-29T11:36:53.698Z,101159.59
2023-03-29T11:42:06.726Z,101158.06
2023-03-29T11:47:14.400Z,101163.50
2023-03-29T11:52:20.763Z,101161.06
2023-03-29T11:57:29.957Z,101166.13
2023-03-29T12:02:37.338Z,101154.03
2023-03-29T12:07:46.749Z,101157.13
2023-03-29T12:12:58.451Z,101152.84
2023-03-29T12:18:08.246Z,101145.66
2023-03-29T12:23:15.743Z,101138.56
2023-03-29T12:28:36.692Z,101133.16
2023-03-29T12:34:07.599Z,101124.44
2023-03-29T12:39:15.292Z,101109.53
2023-03-29T12:44:23.414Z,101115.91
2023-03-29T12:49:30.417Z,101098.94
2023-03-29T12:54:34.255Z,101089.84
2023-03-29T12:59:45.180Z,101081.19
2023-03-29T13:04:52.130Z,101070.31
2023-03-29T13:09:56.545Z,101076.09
2023-03-29T13:15:02.670Z,101078.31
2023-03-29T13:20:21.160Z,101074.69
2023-03-29T13:25:50.493Z,101076.50
2023-03-29T13:31:00.418Z,101077.56
2023-03-29T13:36:08.721Z,101069.13
2023-03-29T13:41:28.698Z,101074.22
2023-03-29T13:46:41.310Z,101067.13
2023-03-29T13:52:01.530Z,101073.88
2023-03-29T13:57:10.843Z,101073.78
2023-03-29T14:02:22.840Z,101069.75
2023-03-29T14:07:27.009Z,101062.22
2023-03-29T14:12:35.391Z,101058.53
2023-03-29T14:17:40.054Z,101068.19
2023-03-29T14:22:43.894Z,101065.47
2023-03-29T14:27:46.678Z,101056.63
2023-03-29T14:32:52.332Z,101062.47
2023-03-29T14:37:55.042Z,101074.56
2023-03-29T14:42:57.604Z,101056.78
2023-03-29T14:48:01.785Z,101066.50
2023-03-29T14:53:06.110Z,101058.03
2023-03-29T14:58:20.473Z,101054.25
2023-03-29T15:03:26.420Z,101048.16
2023-03-29T15:08:33.554Z,101043.56
2023-03-29T15:13:36.385Z,101029.97
2023-03-29T15:18:42.862Z,101031.78
2023-03-29T15:23:51.604Z,101020.63
2023-03-29T15:28:57.382Z,101019.78
2023-03-29T15:34:08.503Z,101005.81
2023-03-29T15:39:14.374Z,101005.16
2023-03-29T15:44:18.684Z,101002.16
2023-03-29T15:49:22.574Z,101002.16
2023-03-29T15:54:25.304Z,100998.38
2023-03-29T15:59:28.210Z,100992.66
2023-03-29T16:04:32.115Z,100977.59
2023-03-29T16:09:34.812Z,100986.34
2023-03-29T16:14:37.578Z,100994.78
2023-03-29T16:19:41.395Z,100992.97
2023-03-29T16:24:43.932Z,100987.72
2023-03-29T16:29:46.456Z,100988.59
2023-03-29T16:34:50.294Z,100983.69
2023-03-29T16:39:52.813Z,100981.31
2023-03-29T16:44:56.508Z,100984.03
2023-03-29T16:50:00.399Z,100978.50
2023-03-29T16:55:04.037Z,100978.72
2023-03-29T17:00:10.787Z,100980.97
2023-03-29T17:05:14.730Z,100981.06
2023-03-29T17:10:17.268Z,100965.50
2023-03-29T17:15:19.882Z,100960.63
2023-03-29T17:20:23.732Z,100954.97
2023-03-29T17:25:26.309Z,100960.91
2023-03-29T17:30:30.407Z,100959.00
2023-03-29T17:35:34.816Z,100961.63
2023-03-29T17:40:37.495Z,100966.47
2023-03-29T17:45:40.117Z,100957.75
2023-03-29T17:50:43.973Z,100962.88
2023-03-29T17:55:46.748Z,100967.91
2023-03-29T18:00:49.566Z,100968.47
2023-03-29T18:05:54.181Z,100965.59
2023-03-29T18:10:56.722Z,100969.13
2023-03-29T18:15:59.734Z,100969.38
2023-03-29T18:21:04.105Z,100967.75
2023-03-29T18:26:08.234Z,100960.75
2023-03-29T18:31:10.995Z,100964.25
2023-03-29T18:36:15.422Z,100966.16
2023-03-29T18:41:18.020Z,100967.16
2023-03-29T18:46:20.534Z,100975.97
2023-03-29T18:51:25.726Z,100980.56
2023-03-29T18:56:28.632Z,100972.75
2023-03-29T19:01:31.183Z,100977.34
2023-03-29T19:06:35.825Z,100985.25
2023-03-29T19:11:38.369Z,100978.31
2023-03-29T19:16:42.293Z,100977.59
2023-03-29T19:21:47.899Z,100976.69
2023-03-29T19:26:51.905Z,100968.44
2023-03-29T19:31:54.558Z,100955.88
2023-03-29T19:37:00.200Z,100957.44
2023-03-29T19:42:02.757Z,100945.03
2023-03-29T19:47:05.663Z,100948.38
2023-03-29T19:52:10.528Z,100931.53
2023-03-29T19:57:13.050Z,100936.66
2023-03-29T20:02:16.009Z,100924.13
2023-03-29T20:07:19.961Z,100910.66
2023-03-29T20:12:22.756Z,100906.88
2023-03-29T20:17:25.581Z,100902.19
2023-03-29T20:22:31.145Z,100901.09
2023-03-29T20:27:34.073Z,100895.56
2023-03-29T20:32:36.693Z,100894.44
2023-03-29T20:37:40.692Z,100882.72
2023-03-29T20:42:46.137Z,100879.78
2023-03-29T20:47:57.403Z,100884.72
2023-03-29T20:53:03.586Z,100873.84
2023-03-29T20:58:07.768Z,100870.88
2023-03-29T21:03:10.820Z,100867.75
2023-03-29T21:08:18.224Z,100861.97
2023-03-29T21:13:20.865Z,100861.56
2023-03-29T21:18:23.535Z,100868.19
2023-03-29T21:23:27.382Z,100866.19
2023-03-29T21:28:29.917Z,100866.59
2023-03-29T21:33:32.509Z,100847.13
2023-03-29T21:38:36.570Z,100846.16
2023-03-29T21:43:39.588Z,100843.41
2023-03-29T21:48:42.593Z,100831.75
2023-03-29T21:53:46.469Z,100827.06
2023-03-29T21:58:48.947Z,100818.84
2023-03-29T22:03:51.470Z,100818.47
2023-03-29T22:08:55.277Z,100817.47
2023-03-29T22:13:57.868Z,100816.50
2023-03-29T22:19:00.393Z,100815.50
2023-03-29T22:24:04.953Z,100815.31
2023-03-29T22:29:07.490Z,100812.44
2023-03-29T22:34:10.006Z,100798.97
2023-03-29T22:39:13.864Z,100802.94
2023-03-29T22:44:16.369Z,100795.63
2023-03-29T22:49:18.913Z,100790.91
2023-03-29T22:54:22.728Z,100782.66
2023-03-29T22:59:26.854Z,100783.28
2023-03-29T23:04:29.473Z,100783.38
2023-03-29T23:09:33.499Z,100774.53
2023-03-29T23:14:36.077Z,100763.81
2023-03-29T23:19:38.791Z,100754.09
2023-03-29T23:24:43.449Z,100731.34
2023-03-29T23:29:46.056Z,100721.59
2023-03-29T23:34:48.563Z,100714.97
2023-03-29T23:39:52.380Z,100714.09
2023-03-29T23:44:55.807Z,100703.69
2023-03-29T23:50:01.942Z,100700.78
2023-03-29T23:55:06.700Z,100693.66
